createdAt,value
2018-07-25T00:00:00.951Z,19.77
2018-07-25T00:00:05.048Z,19.77
2018-07-25T00:00:09.250Z,19.77
2018-07-25T00:00:13.345Z,19.77
2018-07-25T00:00:17.446Z,19.77
2018-07-25T00:00:21.651Z,19.78
2018-07-25T00:00:25.989Z,19.77
2018-07-25T00:00:30.244Z,19.77
2018-07-25T00:00:34.347Z,19.78
2018-07-25T00:00:38.552Z,19.77
2018-07-25T00:00:42.874Z,19.77
2018-07-25T00:00:47.193Z,19.78
2018-07-25T00:00:51.293Z,19.77
2018-07-25T00:00:55.541Z,19.77
2018-07-25T00:00:59.859Z,19.78
2018-07-25T00:01:03.966Z,19.78
2018-07-25T00:01:08.179Z,19.77
2018-07-25T00:01:12.380Z,19.78
2018-07-25T00:01:16.597Z,19.78
2018-07-25T00:01:20.916Z,19.78
2018-07-25T00:01:25.228Z,19.78
2018-07-25T00:01:29.218Z,19.78
2018-07-25T00:01:33.319Z,19.78
2018-07-25T00:01:37.518Z,19.78
2018-07-25T00:01:41.618Z,19.78
2018-07-25T00:01:45.824Z,19.78
2018-07-25T00:01:50.030Z,19.78
2018-07-25T00:01:54.240Z,19.78
2018-07-25T00:01:58.443Z,19.77
2018-07-25T00:02:02.655Z,19.78
2018-07-25T00:02:06.878Z,19.79
2018-07-25T00:02:11.197Z,19.79
2018-07-25T00:02:15.527Z,19.79
2018-07-25T00:02:19.733Z,19.79
2018-07-25T00:02:23.829Z,19.79
2018-07-25T00:02:27.829Z,19.79
2018-07-25T00:02:32.036Z,19.79
2018-07-25T00:02:36.350Z,19.79
2018-07-25T00:02:40.560Z,19.79
2018-07-25T00:02:44.654Z,19.78
2018-07-25T00:02:48.539Z,19.78
2018-07-25T00:02:52.747Z,19.79
2018-07-25T00:02:56.961Z,19.79
2018-07-25T00:03:01.178Z,19.79
2018-07-25T00:03:05.499Z,19.79
2018-07-25T00:03:09.598Z,19.79
2018-07-25T00:03:13.923Z,19.79
2018-07-25T00:03:17.813Z,19.79
2018-07-25T00:03:22.119Z,19.8
2018-07-25T00:03:26.322Z,19.8
2018-07-25T00:03:30.635Z,19.79
2018-07-25T00:03:34.839Z,19.8
2018-07-25T00:03:38.939Z,19.8
2018-07-25T00:03:43.154Z,19.79
2018-07-25T00:03:47.359Z,19.8
2018-07-25T00:03:51.462Z,19.8
2018-07-25T00:03:55.773Z,19.8
2018-07-25T00:03:59.872Z,19.8
2018-07-25T00:04:03.972Z,19.8
2018-07-25T00:04:07.862Z,19.8
2018-07-25T00:04:12.176Z,19.8
2018-07-25T00:04:16.175Z,19.8
2018-07-25T00:04:20.057Z,19.8
2018-07-25T00:04:24.257Z,19.8
2018-07-25T00:04:28.406Z,19.8
2018-07-25T00:04:32.722Z,19.8
2018-07-25T00:04:36.830Z,19.81
2018-07-25T00:04:41.140Z,19.8
2018-07-25T00:04:45.344Z,19.8
2018-07-25T00:04:49.543Z,19.8
2018-07-25T00:04:53.857Z,19.8
2018-07-25T00:04:58.058Z,19.8
2018-07-25T00:05:02.262Z,19.8
2018-07-25T00:05:06.471Z,19.8
2018-07-25T00:05:10.780Z,19.8
2018-07-25T00:05:14.882Z,19.8
2018-07-25T00:05:18.881Z,19.81
2018-07-25T00:05:23.088Z,19.81
2018-07-25T00:05:27.403Z,19.8
2018-07-25T00:05:31.514Z,19.81
2018-07-25T00:05:35.714Z,19.8
2018-07-25T00:05:39.919Z,19.81
2018-07-25T00:05:44.228Z,19.81
2018-07-25T00:05:48.329Z,19.81
2018-07-25T00:05:52.648Z,19.8
2018-07-25T00:05:56.955Z,19.8
2018-07-25T00:06:01.051Z,19.81
2018-07-25T00:06:05.261Z,19.81
2018-07-25T00:06:09.465Z,19.81
2018-07-25T00:06:13.782Z,19.8
2018-07-25T00:06:17.889Z,19.8
2018-07-25T00:06:22.205Z,19.8
2018-07-25T00:06:26.511Z,19.81
2018-07-25T00:06:30.722Z,19.8
2018-07-25T00:06:34.922Z,19.8
2018-07-25T00:06:39.122Z,19.8
2018-07-25T00:06:43.219Z,19.8
2018-07-25T00:06:47.312Z,19.81
2018-07-25T00:06:51.405Z,19.81
2018-07-25T00:06:55.504Z,19.8
2018-07-25T00:06:59.703Z,19.8
2018-07-25T00:07:04.018Z,19.81
2018-07-25T00:07:08.219Z,19.81
2018-07-25T00:07:12.420Z,19.81
2018-07-25T00:07:16.628Z,19.81
2018-07-25T00:07:20.946Z,19.81
2018-07-25T00:07:25.147Z,19.8
2018-07-25T00:07:29.355Z,19.8
2018-07-25T00:07:33.346Z,19.81
2018-07-25T00:07:37.659Z,19.8
2018-07-25T00:07:41.653Z,19.81
2018-07-25T00:07:45.852Z,19.81
2018-07-25T00:07:50.161Z,19.81
2018-07-25T00:07:54.475Z,19.81
2018-07-25T00:07:58.784Z,19.8
2018-07-25T00:08:02.937Z,19.81
2018-07-25T00:08:07.143Z,19.81
2018-07-25T00:08:11.133Z,19.81
2018-07-25T00:08:15.346Z,19.81
2018-07-25T00:08:19.442Z,19.8
2018-07-25T00:08:23.644Z,19.81
2018-07-25T00:08:27.742Z,19.81
2018-07-25T00:08:31.737Z,19.81
2018-07-25T00:08:36.050Z,19.81
2018-07-25T00:08:40.261Z,19.81
2018-07-25T00:08:44.359Z,19.81
2018-07-25T00:08:48.563Z,19.81
2018-07-25T00:08:52.870Z,19.81
2018-07-25T00:08:57.076Z,19.81
2018-07-25T00:09:01.175Z,19.81
2018-07-25T00:09:05.064Z,19.8
2018-07-25T00:09:09.167Z,19.8
2018-07-25T00:09:13.377Z,19.8
2018-07-25T00:09:17.580Z,19.81
2018-07-25T00:09:21.782Z,19.8
2018-07-25T00:09:26.096Z,19.8
2018-07-25T00:09:29.978Z,19.8
2018-07-25T00:09:34.088Z,19.8
2018-07-25T00:09:38.194Z,19.81
2018-07-25T00:09:42.299Z,19.8
2018-07-25T00:09:46.608Z,19.8
2018-07-25T00:09:50.815Z,19.79
2018-07-25T00:09:55.022Z,19.79
2018-07-25T00:09:59.220Z,19.79
2018-07-25T00:10:03.351Z,19.79
2018-07-25T00:10:07.239Z,19.78
2018-07-25T00:10:11.551Z,19.79
2018-07-25T00:10:15.650Z,19.79
2018-07-25T00:10:19.647Z,19.79
2018-07-25T00:10:23.854Z,19.78
2018-07-25T00:10:28.167Z,19.78
2018-07-25T00:10:32.268Z,19.78
2018-07-25T00:10:36.477Z,19.78
2018-07-25T00:10:40.789Z,19.78
2018-07-25T00:10:45.100Z,19.77
2018-07-25T00:10:49.318Z,19.77
2018-07-25T00:10:53.626Z,19.77
2018-07-25T00:10:57.728Z,19.77
2018-07-25T00:11:02.047Z,19.77
2018-07-25T00:11:06.246Z,19.77
2018-07-25T00:11:10.449Z,19.76
2018-07-25T00:11:14.649Z,19.77
2018-07-25T00:11:18.849Z,19.76
2018-07-25T00:11:22.951Z,19.77
2018-07-25T00:11:27.255Z,19.76
2018-07-25T00:11:31.564Z,19.76
2018-07-25T00:11:35.661Z,19.76
2018-07-25T00:11:39.862Z,19.77
2018-07-25T00:11:44.070Z,19.76
2018-07-25T00:11:48.171Z,19.75
2018-07-25T00:11:52.371Z,19.75
2018-07-25T00:11:56.582Z,19.75
2018-07-25T00:12:00.683Z,19.75
2018-07-25T00:12:04.786Z,19.75
2018-07-25T00:12:08.986Z,19.74
2018-07-25T00:12:13.200Z,19.75
2018-07-25T00:12:17.402Z,19.74
2018-07-25T00:12:21.506Z,19.74
2018-07-25T00:12:25.608Z,19.74
2018-07-25T00:12:29.717Z,19.73
2018-07-25T00:12:33.819Z,19.73
2018-07-25T00:12:38.125Z,19.74
2018-07-25T00:12:42.424Z,19.73
2018-07-25T00:12:46.780Z,19.73
2018-07-25T00:12:50.871Z,19.73
2018-07-25T00:12:54.861Z,19.72
2018-07-25T00:12:59.166Z,19.72
2018-07-25T00:13:03.316Z,19.72
2018-07-25T00:13:07.308Z,19.72
2018-07-25T00:13:11.624Z,19.72
2018-07-25T00:13:15.828Z,19.72
2018-07-25T00:13:19.924Z,19.72
2018-07-25T00:13:24.240Z,19.72
2018-07-25T00:13:28.546Z,19.71
2018-07-25T00:13:32.761Z,19.71
2018-07-25T00:13:37.078Z,19.71
2018-07-25T00:13:41.174Z,19.72
2018-07-25T00:13:45.485Z,19.7
2018-07-25T00:13:49.795Z,19.7
2018-07-25T00:13:54.006Z,19.71
2018-07-25T00:13:57.996Z,19.69
2018-07-25T00:14:02.305Z,19.7
2018-07-25T00:14:06.401Z,19.7
2018-07-25T00:14:10.718Z,19.69
2018-07-25T00:14:14.923Z,19.69
2018-07-25T00:14:19.125Z,19.7
2018-07-25T00:14:23.332Z,19.69
2018-07-25T00:14:27.542Z,19.68
2018-07-25T00:14:31.638Z,19.69
2018-07-25T00:14:35.735Z,19.68
2018-07-25T00:14:39.951Z,19.69
2018-07-25T00:14:44.270Z,19.68
2018-07-25T00:14:48.475Z,19.68
2018-07-25T00:14:52.570Z,19.67
2018-07-25T00:14:56.669Z,19.67
2018-07-25T00:15:00.978Z,19.67
2018-07-25T00:15:05.184Z,19.67
2018-07-25T00:15:09.492Z,19.67
2018-07-25T00:15:13.699Z,19.66
2018-07-25T00:15:17.794Z,19.66
2018-07-25T00:15:21.790Z,19.67
2018-07-25T00:15:25.994Z,19.66
2018-07-25T00:15:30.304Z,19.65
2018-07-25T00:15:34.519Z,19.66
2018-07-25T00:15:38.610Z,19.66
2018-07-25T00:15:42.703Z,19.65
2018-07-25T00:15:47.020Z,19.65
2018-07-25T00:15:51.224Z,19.66
2018-07-25T00:15:55.531Z,19.65
2018-07-25T00:15:59.843Z,19.66
2018-07-25T00:16:04.151Z,19.64
2018-07-25T00:16:08.356Z,19.64
2018-07-25T00:16:12.568Z,19.64
2018-07-25T00:16:16.771Z,19.65
2018-07-25T00:16:20.988Z,19.64
2018-07-25T00:16:25.197Z,19.64
2018-07-25T00:16:29.295Z,19.63
2018-07-25T00:16:33.394Z,19.64
2018-07-25T00:16:37.702Z,19.63
2018-07-25T00:16:41.911Z,19.64
2018-07-25T00:16:46.225Z,19.64
2018-07-25T00:16:50.530Z,19.63
2018-07-25T00:16:54.728Z,19.63
2018-07-25T00:16:58.941Z,19.63
2018-07-25T00:17:03.147Z,19.63
2018-07-25T00:17:07.247Z,19.63
2018-07-25T00:17:11.446Z,19.62
2018-07-25T00:17:15.550Z,19.62
2018-07-25T00:17:19.646Z,19.62
2018-07-25T00:17:23.955Z,19.62
2018-07-25T00:17:28.159Z,19.61
2018-07-25T00:17:32.149Z,19.61
2018-07-25T00:17:36.352Z,19.62
2018-07-25T00:17:40.555Z,19.61
2018-07-25T00:17:44.886Z,19.61
2018-07-25T00:17:49.090Z,19.61
2018-07-25T00:17:53.449Z,19.61
2018-07-25T00:17:57.651Z,19.6
2018-07-25T00:18:02.069Z,19.6
2018-07-25T00:18:06.379Z,19.6
2018-07-25T00:18:10.700Z,19.6
2018-07-25T00:18:15.020Z,19.6
2018-07-25T00:18:19.140Z,19.61
2018-07-25T00:18:23.262Z,19.6
2018-07-25T00:18:27.463Z,19.6
2018-07-25T00:18:31.460Z,19.59
2018-07-25T00:18:35.668Z,19.6
2018-07-25T00:18:39.975Z,19.6
2018-07-25T00:18:44.178Z,19.6
2018-07-25T00:18:48.485Z,19.6
2018-07-25T00:18:52.693Z,19.6
2018-07-25T00:18:57.003Z,19.59
2018-07-25T00:19:01.097Z,19.6
2018-07-25T00:19:05.331Z,19.59
2018-07-25T00:19:09.645Z,19.59
2018-07-25T00:19:13.953Z,19.6
2018-07-25T00:19:18.161Z,19.59
2018-07-25T00:19:22.148Z,19.58
2018-07-25T00:19:26.345Z,19.59
2018-07-25T00:19:30.666Z,19.59
2018-07-25T00:19:34.865Z,19.59
2018-07-25T00:19:39.137Z,19.59
2018-07-25T00:19:43.448Z,19.59
2018-07-25T00:19:47.753Z,19.59
2018-07-25T00:19:52.058Z,19.58
2018-07-25T00:19:56.164Z,19.58
2018-07-25T00:20:00.474Z,19.57
2018-07-25T00:20:04.681Z,19.57
2018-07-25T00:20:08.994Z,19.58
2018-07-25T00:20:13.193Z,19.57
2018-07-25T00:20:17.285Z,19.58
2018-07-25T00:20:21.489Z,19.58
2018-07-25T00:20:25.691Z,19.58
2018-07-25T00:20:30.008Z,19.58
2018-07-25T00:20:34.104Z,19.57
2018-07-25T00:20:38.090Z,19.57
2018-07-25T00:20:42.396Z,19.57
2018-07-25T00:20:46.705Z,19.58
2018-07-25T00:20:50.914Z,19.56
2018-07-25T00:20:55.118Z,19.57
2018-07-25T00:20:59.322Z,19.57
2018-07-25T00:21:03.441Z,19.57
2018-07-25T00:21:07.760Z,19.57
2018-07-25T00:21:11.989Z,19.57
2018-07-25T00:21:16.094Z,19.56
2018-07-25T00:21:20.164Z,19.56
2018-07-25T00:21:24.352Z,19.56
2018-07-25T00:21:28.620Z,19.56
2018-07-25T00:21:33.326Z,19.55
2018-07-25T00:21:38.101Z,19.56
2018-07-25T00:21:42.420Z,19.56
2018-07-25T00:21:46.620Z,19.56
2018-07-25T00:21:50.821Z,19.55
2018-07-25T00:21:54.927Z,19.56
2018-07-25T00:21:59.128Z,19.56
2018-07-25T00:22:03.168Z,19.55
2018-07-25T00:22:07.374Z,19.55
2018-07-25T00:22:11.683Z,19.55
2018-07-25T00:22:15.996Z,19.55
2018-07-25T00:22:20.097Z,19.55
2018-07-25T00:22:24.412Z,19.55
2018-07-25T00:22:28.400Z,19.54
2018-07-25T00:22:32.499Z,19.54
2018-07-25T00:22:36.701Z,19.54
2018-07-25T00:22:40.905Z,19.54
2018-07-25T00:22:44.893Z,19.54
2018-07-25T00:22:49.266Z,19.55
2018-07-25T00:22:53.585Z,19.54
2018-07-25T00:22:57.785Z,19.54
2018-07-25T00:23:01.992Z,19.54
2018-07-25T00:23:06.199Z,19.54
2018-07-25T00:23:10.405Z,19.54
2018-07-25T00:23:14.607Z,19.54
2018-07-25T00:23:18.707Z,19.54
2018-07-25T00:23:23.020Z,19.53
2018-07-25T00:23:27.117Z,19.53
2018-07-25T00:23:31.429Z,19.53
2018-07-25T00:23:35.631Z,19.52
2018-07-25T00:23:39.833Z,19.52
2018-07-25T00:23:44.040Z,19.53
2018-07-25T00:23:48.233Z,19.52
2018-07-25T00:23:52.432Z,19.52
2018-07-25T00:23:56.527Z,19.53
2018-07-25T00:24:00.513Z,19.52
2018-07-25T00:24:04.748Z,19.52
2018-07-25T00:24:08.949Z,19.52
2018-07-25T00:24:13.158Z,19.51
2018-07-25T00:24:17.467Z,19.51
2018-07-25T00:24:21.774Z,19.51
2018-07-25T00:24:25.765Z,19.51
2018-07-25T00:24:29.861Z,19.51
2018-07-25T00:24:34.082Z,19.51
2018-07-25T00:24:38.285Z,19.51
2018-07-25T00:24:42.491Z,19.5
2018-07-25T00:24:46.796Z,19.51
2018-07-25T00:24:50.996Z,19.5
2018-07-25T00:24:55.205Z,19.5
2018-07-25T00:24:59.406Z,19.5
2018-07-25T00:25:03.669Z,19.51
2018-07-25T00:25:07.780Z,19.5
2018-07-25T00:25:11.980Z,19.5
2018-07-25T00:25:16.077Z,19.49
2018-07-25T00:25:20.174Z,19.5
2018-07-25T00:25:24.381Z,19.5
2018-07-25T00:25:28.702Z,19.49
2018-07-25T00:25:32.915Z,19.49
2018-07-25T00:25:37.114Z,19.5
2018-07-25T00:25:41.420Z,19.5
2018-07-25T00:25:45.624Z,19.49
2018-07-25T00:25:49.827Z,19.48
2018-07-25T00:25:54.031Z,19.48
2018-07-25T00:25:58.238Z,19.48
2018-07-25T00:26:02.547Z,19.48
2018-07-25T00:26:06.862Z,19.49
2018-07-25T00:26:11.072Z,19.48
2018-07-25T00:26:15.383Z,19.48
2018-07-25T00:26:19.496Z,19.48
2018-07-25T00:26:23.809Z,19.48
2018-07-25T00:26:28.109Z,19.47
2018-07-25T00:26:32.321Z,19.47
2018-07-25T00:26:36.521Z,19.48
2018-07-25T00:26:40.732Z,19.48
2018-07-25T00:26:44.937Z,19.47
2018-07-25T00:26:49.143Z,19.47
2018-07-25T00:26:53.239Z,19.47
2018-07-25T00:26:57.390Z,19.47
2018-07-25T00:27:01.706Z,19.47
2018-07-25T00:27:05.723Z,19.46
2018-07-25T00:27:09.934Z,19.45
2018-07-25T00:27:14.153Z,19.46
2018-07-25T00:27:18.462Z,19.46
2018-07-25T00:27:22.666Z,19.45
2018-07-25T00:27:26.872Z,19.45
2018-07-25T00:27:31.177Z,19.46
2018-07-25T00:27:35.383Z,19.46
2018-07-25T00:27:39.589Z,19.45
2018-07-25T00:27:43.577Z,19.45
2018-07-25T00:27:47.787Z,19.44
2018-07-25T00:27:51.882Z,19.45
2018-07-25T00:27:55.974Z,19.44
2018-07-25T00:28:00.282Z,19.44
2018-07-25T00:28:04.379Z,19.44
2018-07-25T00:28:08.582Z,19.44
2018-07-25T00:28:12.796Z,19.44
2018-07-25T00:28:17.107Z,19.44
2018-07-25T00:28:21.414Z,19.44
2018-07-25T00:28:25.722Z,19.44
2018-07-25T00:28:30.034Z,19.43
2018-07-25T00:28:34.231Z,19.44
2018-07-25T00:28:38.332Z,19.44
2018-07-25T00:28:42.643Z,19.43
2018-07-25T00:28:46.948Z,19.43
2018-07-25T00:28:51.156Z,19.44
2018-07-25T00:28:55.369Z,19.43
2018-07-25T00:28:59.607Z,19.44
2018-07-25T00:29:03.926Z,19.43
2018-07-25T00:29:08.236Z,19.42
2018-07-25T00:29:12.239Z,19.43
2018-07-25T00:29:16.441Z,19.43
2018-07-25T00:29:20.435Z,19.42
2018-07-25T00:29:24.535Z,19.43
2018-07-25T00:29:28.636Z,19.42
2018-07-25T00:29:32.628Z,19.42
2018-07-25T00:29:36.941Z,19.42
2018-07-25T00:29:41.155Z,19.42
2018-07-25T00:29:45.364Z,19.41
2018-07-25T00:29:49.574Z,19.42
2018-07-25T00:29:53.893Z,19.41
2018-07-25T00:29:58.092Z,19.41
2018-07-25T00:30:02.240Z,19.41
2018-07-25T00:30:06.338Z,19.41
2018-07-25T00:30:10.553Z,19.41
2018-07-25T00:30:14.771Z,19.4
2018-07-25T00:30:18.762Z,19.41
2018-07-25T00:30:22.861Z,19.4
2018-07-25T00:30:26.965Z,19.4
2018-07-25T00:30:31.182Z,19.4
2018-07-25T00:30:35.386Z,19.41
2018-07-25T00:30:39.590Z,19.4
2018-07-25T00:30:43.584Z,19.4
2018-07-25T00:30:47.787Z,19.4
2018-07-25T00:30:51.997Z,19.4
2018-07-25T00:30:56.200Z,19.39
2018-07-25T00:31:00.513Z,19.4
2018-07-25T00:31:04.717Z,19.39
2018-07-25T00:31:08.820Z,19.38
2018-07-25T00:31:13.022Z,19.38
2018-07-25T00:31:17.230Z,19.38
2018-07-25T00:31:21.329Z,19.38
2018-07-25T00:31:25.423Z,19.38
2018-07-25T00:31:29.622Z,19.38
2018-07-25T00:31:33.825Z,19.38
2018-07-25T00:31:37.913Z,19.37
2018-07-25T00:31:42.118Z,19.37
2018-07-25T00:31:46.318Z,19.38
2018-07-25T00:31:50.629Z,19.37
2018-07-25T00:31:54.839Z,19.37
2018-07-25T00:31:59.043Z,19.38
2018-07-25T00:32:03.358Z,19.37
2018-07-25T00:32:07.562Z,19.37
2018-07-25T00:32:11.660Z,19.37
2018-07-25T00:32:15.871Z,19.38
2018-07-25T00:32:20.181Z,19.37
2018-07-25T00:32:24.275Z,19.37
2018-07-25T00:32:28.476Z,19.36
2018-07-25T00:32:32.573Z,19.36
2018-07-25T00:32:36.775Z,19.37
2018-07-25T00:32:40.979Z,19.36
2018-07-25T00:32:45.177Z,19.37
2018-07-25T00:32:49.269Z,19.36
2018-07-25T00:32:53.474Z,19.36
2018-07-25T00:32:57.585Z,19.36
2018-07-25T00:33:01.679Z,19.35
2018-07-25T00:33:05.668Z,19.35
2018-07-25T00:33:09.869Z,19.35
2018-07-25T00:33:14.069Z,19.36
2018-07-25T00:33:18.285Z,19.36
2018-07-25T00:33:22.486Z,19.36
2018-07-25T00:33:26.795Z,19.36
2018-07-25T00:33:30.999Z,19.35
2018-07-25T00:33:35.310Z,19.34
2018-07-25T00:33:39.615Z,19.36
2018-07-25T00:33:43.865Z,19.34
2018-07-25T00:33:47.853Z,19.34
2018-07-25T00:33:52.059Z,19.34
2018-07-25T00:33:56.157Z,19.34
2018-07-25T00:34:00.475Z,19.34
2018-07-25T00:34:04.905Z,19.34
2018-07-25T00:34:09.153Z,19.34
2018-07-25T00:34:13.371Z,19.33
2018-07-25T00:34:17.468Z,19.34
2018-07-25T00:34:21.776Z,19.33
2018-07-25T00:34:25.882Z,19.33
2018-07-25T00:34:30.088Z,19.33
2018-07-25T00:34:34.401Z,19.33
2018-07-25T00:34:38.596Z,19.32
2018-07-25T00:34:42.700Z,19.32
2018-07-25T00:34:47.013Z,19.32
2018-07-25T00:34:51.111Z,19.31
2018-07-25T00:34:55.419Z,19.32
2018-07-25T00:34:59.649Z,19.32
2018-07-25T00:35:03.744Z,19.33
2018-07-25T00:35:07.947Z,19.31
2018-07-25T00:35:12.287Z,19.31
2018-07-25T00:35:16.495Z,19.31
2018-07-25T00:35:20.699Z,19.31
2018-07-25T00:35:24.903Z,19.31
2018-07-25T00:35:29.205Z,19.29
2018-07-25T00:35:33.513Z,19.31
2018-07-25T00:35:37.825Z,19.3
2018-07-25T00:35:42.131Z,19.3
2018-07-25T00:35:46.224Z,19.29
2018-07-25T00:35:50.547Z,19.29
2018-07-25T00:35:54.850Z,19.3
2018-07-25T00:35:58.946Z,19.29
2018-07-25T00:36:03.152Z,19.29
2018-07-25T00:36:07.357Z,19.29
2018-07-25T00:36:11.483Z,19.29
2018-07-25T00:36:16.046Z,19.29
2018-07-25T00:36:20.606Z,19.29
2018-07-25T00:36:25.593Z,19.27
2018-07-25T00:36:29.636Z,19.29
2018-07-25T00:36:33.948Z,19.28
2018-07-25T00:36:38.156Z,19.27
2018-07-25T00:36:42.470Z,19.27
2018-07-25T00:36:46.787Z,19.27
2018-07-25T00:36:50.997Z,19.28
2018-07-25T00:36:55.199Z,19.27
2018-07-25T00:36:59.415Z,19.26
2018-07-25T00:37:03.525Z,19.26
2018-07-25T00:37:07.840Z,19.27
2018-07-25T00:37:12.176Z,19.26
2018-07-25T00:37:16.494Z,19.26
2018-07-25T00:37:20.696Z,19.26
2018-07-25T00:37:24.791Z,19.26
2018-07-25T00:37:29.145Z,19.26
2018-07-25T00:37:33.466Z,19.25
2018-07-25T00:37:37.456Z,19.26
2018-07-25T00:37:41.771Z,19.26
2018-07-25T00:37:46.077Z,19.25
2018-07-25T00:37:50.179Z,19.25
2018-07-25T00:37:54.276Z,19.25
2018-07-25T00:37:58.482Z,19.25
2018-07-25T00:38:02.588Z,19.25
2018-07-25T00:38:06.793Z,19.24
2018-07-25T00:38:11.107Z,19.24
2018-07-25T00:38:15.098Z,19.24
2018-07-25T00:38:19.304Z,19.24
2018-07-25T00:38:23.625Z,19.23
2018-07-25T00:38:27.831Z,19.23
2018-07-25T00:38:32.143Z,19.24
2018-07-25T00:38:36.456Z,19.23
2018-07-25T00:38:40.774Z,19.22
2018-07-25T00:38:45.082Z,19.23
2018-07-25T00:38:49.285Z,19.22
2018-07-25T00:38:53.484Z,19.22
2018-07-25T00:38:57.892Z,19.23
2018-07-25T00:39:02.209Z,19.22
2018-07-25T00:39:06.522Z,19.22
2018-07-25T00:39:10.732Z,19.22
2018-07-25T00:39:14.934Z,19.22
2018-07-25T00:39:18.931Z,19.21
2018-07-25T00:39:23.029Z,19.22
2018-07-25T00:39:26.907Z,19.21
2018-07-25T00:39:31.115Z,19.21
2018-07-25T00:39:35.209Z,19.2
2018-07-25T00:39:39.574Z,19.21
2018-07-25T00:39:43.731Z,19.21
2018-07-25T00:39:47.933Z,19.21
2018-07-25T00:39:52.254Z,19.21
2018-07-25T00:39:56.457Z,19.2
2018-07-25T00:40:00.660Z,19.2
2018-07-25T00:40:04.758Z,19.2
2018-07-25T00:40:08.849Z,19.2
2018-07-25T00:40:12.846Z,19.2
2018-07-25T00:40:17.168Z,19.2
2018-07-25T00:40:21.265Z,19.19
2018-07-25T00:40:25.470Z,19.19
2018-07-25T00:40:29.669Z,19.19
2018-07-25T00:40:33.985Z,19.18
2018-07-25T00:40:38.197Z,19.19
2018-07-25T00:40:42.394Z,19.19
2018-07-25T00:40:46.703Z,19.18
2018-07-25T00:40:50.716Z,19.18
2018-07-25T00:40:55.048Z,19.18
2018-07-25T00:40:59.144Z,19.18
2018-07-25T00:41:03.351Z,19.18
2018-07-25T00:41:07.553Z,19.18
2018-07-25T00:41:11.870Z,19.17
2018-07-25T00:41:16.073Z,19.17
2018-07-25T00:41:20.384Z,19.17
2018-07-25T00:41:24.589Z,19.17
2018-07-25T00:41:28.686Z,19.17
2018-07-25T00:41:32.890Z,19.17
2018-07-25T00:41:37.212Z,19.17
2018-07-25T00:41:41.200Z,19.17
2018-07-25T00:41:45.414Z,19.16
2018-07-25T00:41:49.626Z,19.16
2018-07-25T00:41:53.724Z,19.16
2018-07-25T00:41:57.941Z,19.16
2018-07-25T00:42:01.931Z,19.16
2018-07-25T00:42:06.436Z,19.15
2018-07-25T00:42:10.645Z,19.16
2018-07-25T00:42:14.844Z,19.15
2018-07-25T00:42:19.050Z,19.16
2018-07-25T00:42:23.253Z,19.15
2018-07-25T00:42:27.254Z,19.15
2018-07-25T00:42:31.459Z,19.15
2018-07-25T00:42:35.767Z,19.15
2018-07-25T00:42:39.967Z,19.15
2018-07-25T00:42:44.168Z,19.15
2018-07-25T00:42:48.372Z,19.14
2018-07-25T00:42:52.691Z,19.13
2018-07-25T00:42:56.942Z,19.14
2018-07-25T00:43:01.152Z,19.13
2018-07-25T00:43:05.472Z,19.13
2018-07-25T00:43:09.781Z,19.13
2018-07-25T00:43:14.090Z,19.13
2018-07-25T00:43:18.290Z,19.13
2018-07-25T00:43:22.493Z,19.13
2018-07-25T00:43:26.587Z,19.12
2018-07-25T00:43:30.788Z,19.13
2018-07-25T00:43:34.996Z,19.12
2018-07-25T00:43:39.093Z,19.11
2018-07-25T00:43:43.190Z,19.11
2018-07-25T00:43:47.283Z,19.11
2018-07-25T00:43:51.380Z,19.11
2018-07-25T00:43:55.588Z,19.11
2018-07-25T00:43:59.897Z,19.11
2018-07-25T00:44:03.999Z,19.11
2018-07-25T00:44:08.098Z,19.11
2018-07-25T00:44:12.414Z,19.11
2018-07-25T00:44:16.609Z,19.11
2018-07-25T00:44:20.704Z,19.11
2018-07-25T00:44:24.808Z,19.11
2018-07-25T00:44:29.120Z,19.1
2018-07-25T00:44:33.430Z,19.11
2018-07-25T00:44:37.631Z,19.1
2018-07-25T00:44:41.830Z,19.1
2018-07-25T00:44:46.034Z,19.1
2018-07-25T00:44:50.339Z,19.1
2018-07-25T00:44:54.438Z,19.09
2018-07-25T00:44:58.750Z,19.09
2018-07-25T00:45:02.974Z,19.09
2018-07-25T00:45:07.298Z,19.09
2018-07-25T00:45:11.505Z,19.09
2018-07-25T00:45:15.711Z,19.1
2018-07-25T00:45:19.808Z,19.09
2018-07-25T00:45:23.905Z,19.09
2018-07-25T00:45:28.110Z,19.09
2018-07-25T00:45:32.421Z,19.09
2018-07-25T00:45:36.634Z,19.09
2018-07-25T00:45:40.834Z,19.08
2018-07-25T00:45:45.149Z,19.07
2018-07-25T00:45:49.514Z,19.08
2018-07-25T00:45:53.824Z,19.08
2018-07-25T00:45:58.023Z,19.07
2018-07-25T00:46:02.333Z,19.08
2018-07-25T00:46:06.645Z,19.08
2018-07-25T00:46:10.751Z,19.07
2018-07-25T00:46:15.058Z,19.07
2018-07-25T00:46:19.267Z,19.07
2018-07-25T00:46:23.582Z,19.07
2018-07-25T00:46:27.788Z,19.07
2018-07-25T00:46:31.990Z,19.07
2018-07-25T00:46:36.300Z,19.07
2018-07-25T00:46:40.390Z,19.07
2018-07-25T00:46:44.490Z,19.06
2018-07-25T00:46:48.792Z,19.06
2018-07-25T00:46:52.992Z,19.07
2018-07-25T00:46:57.190Z,19.06
2018-07-25T00:47:01.390Z,19.07
2018-07-25T00:47:05.520Z,19.06
2018-07-25T00:47:09.735Z,19.06
2018-07-25T00:47:13.941Z,19.06
2018-07-25T00:47:17.938Z,19.06
2018-07-25T00:47:22.144Z,19.06
2018-07-25T00:47:26.349Z,19.06
2018-07-25T00:47:30.680Z,19.05
2018-07-25T00:47:34.997Z,19.06
2018-07-25T00:47:39.200Z,19.05
2018-07-25T00:47:43.200Z,19.05
2018-07-25T00:47:47.404Z,19.06
2018-07-25T00:47:51.714Z,19.05
2018-07-25T00:47:55.916Z,19.05
2018-07-25T00:48:00.231Z,19.05
2018-07-25T00:48:04.545Z,19.05
2018-07-25T00:48:08.426Z,19.04
2018-07-25T00:48:12.530Z,19.06
2018-07-25T00:48:16.743Z,19.06
2018-07-25T00:48:21.053Z,19.05
2018-07-25T00:48:25.261Z,19.05
2018-07-25T00:48:29.364Z,19.05
2018-07-25T00:48:33.567Z,19.05
2018-07-25T00:48:37.873Z,19.05
2018-07-25T00:48:42.078Z,19.04
2018-07-25T00:48:46.170Z,19.04
2018-07-25T00:48:50.481Z,19.05
2018-07-25T00:48:54.689Z,19.05
2018-07-25T00:48:58.787Z,19.05
2018-07-25T00:49:02.940Z,19.04
2018-07-25T00:49:07.034Z,19.05
2018-07-25T00:49:11.357Z,19.04
2018-07-25T00:49:15.664Z,19.05
2018-07-25T00:49:19.869Z,19.04
2018-07-25T00:49:24.072Z,19.05
2018-07-25T00:49:28.277Z,19.04
2018-07-25T00:49:32.375Z,19.04
2018-07-25T00:49:36.680Z,19.04
2018-07-25T00:49:40.776Z,19.04
2018-07-25T00:49:44.983Z,19.05
2018-07-25T00:49:48.973Z,19.04
2018-07-25T00:49:53.178Z,19.04
2018-07-25T00:49:57.167Z,19.05
2018-07-25T00:50:01.371Z,19.04
2018-07-25T00:50:05.472Z,19.04
2018-07-25T00:50:09.463Z,19.03
2018-07-25T00:50:13.675Z,19.03
2018-07-25T00:50:17.877Z,19.04
2018-07-25T00:50:22.082Z,19.03
2018-07-25T00:50:26.297Z,19.04
2018-07-25T00:50:30.606Z,19.04
2018-07-25T00:50:34.867Z,19.05
2018-07-25T00:50:39.178Z,19.04
2018-07-25T00:50:43.392Z,19.04
2018-07-25T00:50:47.601Z,19.03
2018-07-25T00:50:51.802Z,19.03
2018-07-25T00:50:56.113Z,19.04
2018-07-25T00:51:00.212Z,19.03
2018-07-25T00:51:04.416Z,19.04
2018-07-25T00:51:08.511Z,19.03
2018-07-25T00:51:12.509Z,19.04
2018-07-25T00:51:16.617Z,19.04
2018-07-25T00:51:20.720Z,19.04
2018-07-25T00:51:24.922Z,19.04
2018-07-25T00:51:29.237Z,19.04
2018-07-25T00:51:33.547Z,19.04
2018-07-25T00:51:37.852Z,19.04
2018-07-25T00:51:42.168Z,19.04
2018-07-25T00:51:46.486Z,19.05
2018-07-25T00:51:50.577Z,19.03
2018-07-25T00:51:54.562Z,19.03
2018-07-25T00:51:58.663Z,19.04
2018-07-25T00:52:02.759Z,19.03
2018-07-25T00:52:06.958Z,19.03
2018-07-25T00:52:11.164Z,19.03
2018-07-25T00:52:15.481Z,19.03
2018-07-25T00:52:19.683Z,19.03
2018-07-25T00:52:23.893Z,19.03
2018-07-25T00:52:27.987Z,19.03
2018-07-25T00:52:32.296Z,19.03
2018-07-25T00:52:36.604Z,19.03
2018-07-25T00:52:40.800Z,19.04
2018-07-25T00:52:45.004Z,19.03
2018-07-25T00:52:49.204Z,19.03
2018-07-25T00:52:53.520Z,19.03
2018-07-25T00:52:57.835Z,19.04
2018-07-25T00:53:01.928Z,19.03
2018-07-25T00:53:06.141Z,19.03
2018-07-25T00:53:10.453Z,19.03
2018-07-25T00:53:14.665Z,19.02
2018-07-25T00:53:18.655Z,19.02
2018-07-25T00:53:22.962Z,19.02
2018-07-25T00:53:27.063Z,19.02
2018-07-25T00:53:31.159Z,19.02
2018-07-25T00:53:35.471Z,19.02
2018-07-25T00:53:39.576Z,19.02
2018-07-25T00:53:43.674Z,19.02
2018-07-25T00:53:47.992Z,19.02
2018-07-25T00:53:52.003Z,19.02
2018-07-25T00:53:56.212Z,19.02
2018-07-25T00:54:00.424Z,19.02
2018-07-25T00:54:04.426Z,19.03
2018-07-25T00:54:08.528Z,19.03
2018-07-25T00:54:12.624Z,19.02
2018-07-25T00:54:16.719Z,19.03
2018-07-25T00:54:20.716Z,19.03